Time;durP1;ratioP1;P1;durP2;ratioP2;P2;SDS_P1;SDS_P2;PMS_P1;PMS_P2;Temp;Humidity;BMP_temperature;BMP_pressure;BME280_temperature;BME280_humidity;BME280_pressure;Samples;Min_cycle;Max_cycle;Signal;HPM_P1;HPM_P2
2023/09/18 00:01:57;;;;;;;15.83;14.33;;;16.30;56.30;;;;;;5079376;27;20043;-89
2023/09/18 00:04:23;;;;;;;15.90;14.40;;;16.20;55.10;;;;;;5063886;28;20394;-88
2023/09/18 00:06:48;;;;;;;19.30;15.15;;;16.20;54.80;;;;;;5076613;28;20063;-88
2023/09/18 00:09:14;;;;;;;17.92;15.77;;;16.20;55.80;;;;;;5044057;28;20040;-89
2023/09/18 00:11:40;;;;;;;18.40;15.75;;;16.20;57.00;;;;;;5059938;28;20083;-89
2023/09/18 00:14:07;;;;;;;16.23;14.52;;;16.10;58.00;;;;;;5042890;28;20048;-89
2023/09/18 00:16:33;;;;;;;17.35;15.65;;;16.10;58.90;;;;;;5043880;28;20055;-89
2023/09/18 00:18:59;;;;;;;27.17;24.35;;;16.10;59.50;;;;;;5059674;28;20067;-89
2023/09/18 00:21:25;;;;;;;29.23;26.17;;;16.10;57.30;;;;;;5061550;28;20040;-89
2023/09/18 00:23:52;;;;;;;29.65;20.65;;;16.00;55.20;;;;;;5043894;28;20282;-89
2023/09/18 00:26:17;;;;;;;24.35;21.83;;;16.00;55.50;;;;;;5027028;28;20546;-89
2023/09/18 00:28:43;;;;;;;21.13;19.13;;;16.00;57.20;;;;;;5090156;28;20146;-89
2023/09/18 00:31:09;;;;;;;17.47;15.20;;;16.00;57.60;;;;;;5060526;28;20071;-89
2023/09/18 00:33:35;;;;;;;19.23;16.95;;;16.00;58.40;;;;;;5060255;28;20392;-89
2023/09/18 00:36:01;;;;;;;20.05;17.98;;;16.00;59.70;;;;;;5055177;27;20566;-89
2023/09/18 00:38:26;;;;;;;25.75;22.95;;;16.00;61.50;;;;;;5117341;27;20053;-89
2023/09/18 00:40:52;;;;;;;25.67;22.90;;;16.10;67.40;;;;;;5083734;27;20529;-89
2023/09/18 00:43:18;;;;;;;28.73;25.73;;;16.20;76.60;;;;;;5065683;28;20290;-89
2023/09/18 00:45:48;;;;;;;28.95;25.75;;;16.30;81.50;;;;;;5091466;27;20043;-89
2023/09/18 00:48:15;;;;;;;27.83;25.02;;;16.40;86.70;;;;;;5079591;28;20093;-90
2023/09/18 00:50:43;;;;;;;27.67;24.83;;;16.40;90.00;;;;;;5095780;28;20126;-89
2023/09/18 00:53:10;;;;;;;26.15;23.45;;;16.50;91.60;;;;;;5058306;28;20138;-89
2023/09/18 00:55:37;;;;;;;;;;;16.60;92.60;;;;;;5042548;28;20135;-94
2023/09/18 00:58:05;;;;;;;25.23;22.67;;;16.70;95.70;;;;;;5090031;28;19998;-89
2023/09/18 01:00:30;;;;;;;27.70;24.92;;;16.60;92.40;;;;;;5057966;28;20040;-90
2023/09/18 01:02:56;;;;;;;28.98;25.98;;;16.70;92.80;;;;;;5095842;28;20049;-89
2023/09/18 01:05:22;;;;;;;29.42;26.30;;;16.70;93.30;;;;;;5082837;28;20054;-89
2023/09/18 01:07:48;;;;;;;30.05;25.67;;;16.70;94.20;;;;;;5076433;28;20372;-89
2023/09/18 01:10:16;;;;;;;31.88;28.38;;;16.80;94.40;;;;;;5074364;28;20036;-89
2023/09/18 01:13:13;;;;;;;31.83;28.58;;;16.80;94.80;;;;;;5067686;28;20039;-89
2023/09/18 01:15:50;;;;;;;31.45;28.13;;;16.80;96.10;;;;;;5104295;28;20494;-92
2023/09/18 01:18:16;;;;;;;30.83;27.65;;;16.80;95.40;;;;;;5089794;28;20134;-89
2023/09/18 01:20:44;;;;;;;32.20;28.80;;;16.80;95.40;;;;;;5072151;28;20044;-88
2023/09/18 01:23:11;;;;;;;31.70;28.45;;;16.80;95.60;;;;;;5081132;28;20040;-89
2023/09/18 01:25:37;;;;;;;31.42;28.10;;;16.80;95.70;;;;;;5086832;28;20072;-89
2023/09/18 01:28:03;;;;;;;32.50;29.20;;;16.80;95.80;;;;;;5076110;28;20066;-89
2023/09/18 01:30:29;;;;;;;31.40;28.27;;;16.80;95.80;;;;;;5064395;28;20048;-89
2023/09/18 01:32:58;;;;;;;32.10;26.67;;;16.80;95.80;;;;;;5074092;28;20400;-89
2023/09/18 01:35:29;;;;;;;32.20;28.98;;;16.80;95.60;;;;;;5115120;28;20039;-89
2023/09/18 01:38:00;;;;;;;32.17;28.45;;;16.80;95.40;;;;;;5114967;28;20047;-90
2023/09/18 01:40:26;;;;;;;35.80;32.25;;;16.80;95.50;;;;;;5098597;28;20057;-89
2023/09/18 01:42:53;;;;;;;37.90;32.30;;;16.80;95.80;;;;;;5083145;28;20526;-89
2023/09/18 01:45:18;;;;;;;37.97;33.97;;;16.90;96.30;;;;;;5059446;28;20492;-89
2023/09/18 01:47:45;;;;;;;36.47;32.75;;;16.90;96.50;;;;;;5079507;28;20064;-89
2023/09/18 01:50:11;;;;;;;38.72;34.78;;;16.90;96.60;;;;;;5077729;28;20047;-89
2023/09/18 01:52:37;;;;;;;35.92;32.25;;;17.00;96.90;;;;;;5094107;28;20391;-90
2023/09/18 01:55:07;;;;;;;33.75;30.55;;;17.00;97.00;;;;;;5064235;28;20070;-89
2023/09/18 01:57:33;;;;;;;33.58;30.27;;;17.10;97.20;;;;;;5088518;28;20059;-89
2023/09/18 01:59:59;;;;;;;33.13;29.92;;;17.10;97.00;;;;;;5053577;28;20052;-89
2023/09/18 02:02:24;;;;;;;32.40;29.20;;;17.10;96.80;;;;;;5117277;28;20096;-89
2023/09/18 02:04:53;;;;;;;32.63;29.35;;;17.10;96.70;;;;;;5052050;28;20058;-89
2023/09/18 02:07:19;;;;;;;34.60;30.93;;;17.10;96.60;;;;;;5078359;28;20127;-89
2023/09/18 02:09:44;;;;;;;31.92;28.58;;;17.10;96.50;;;;;;5061835;28;20282;-89
2023/09/18 02:12:11;;;;;;;33.03;29.77;;;17.10;96.40;;;;;;5061603;28;20051;-88
2023/09/18 02:14:38;;;;;;;31.40;27.90;;;17.00;96.40;;;;;;5062467;28;20158;-89
2023/09/18 02:17:05;;;;;;;;;;;17.00;96.40;;;;;;5045372;28;20498;-89
2023/09/18 02:19:31;;;;;;;30.77;27.50;;;17.00;97.40;;;;;;5062137;28;19920;-89
2023/09/18 02:21:57;;;;;;;30.63;27.65;;;17.00;95.90;;;;;;5060812;28;20064;-90
2023/09/18 02:24:23;;;;;;;30.13;27.13;;;17.00;95.90;;;;;;5077751;28;20054;-89
2023/09/18 02:26:49;;;;;;;29.40;26.38;;;17.00;95.90;;;;;;5060831;28;20134;-93
2023/09/18 02:29:14;;;;;;;28.33;25.60;;;17.00;95.90;;;;;;5078002;28;20051;-88
2023/09/18 02:31:40;;;;;;;29.40;26.60;;;17.00;96.10;;;;;;5051467;27;20298;-89
2023/09/18 02:34:07;;;;;;;25.13;22.88;;;17.00;96.20;;;;;;5084914;27;20720;-90
2023/09/18 02:36:33;;;;;;;;;;;17.00;96.10;;;;;;5066179;28;20044;-90
2023/09/18 02:38:58;;;;;;;29.30;26.15;;;17.00;96.90;;;;;;5092527;28;19919;-90
2023/09/18 02:41:24;;;;;;;27.27;24.63;;;17.00;95.80;;;;;;5044471;28;20057;-89
2023/09/18 02:43:50;;;;;;;26.95;24.17;;;17.00;95.70;;;;;;5077685;28;20090;-90
2023/09/18 02:46:15;;;;;;;26.40;23.75;;;17.00;95.80;;;;;;5082186;27;20047;-89
2023/09/18 02:48:41;;;;;;;26.20;23.60;;;17.00;95.90;;;;;;5087982;27;20039;-89
2023/09/18 02:51:10;;;;;;;26.70;24.00;;;17.00;96.10;;;;;;5083724;27;20292;-89
2023/09/18 02:53:36;;;;;;;28.83;25.80;;;17.00;96.30;;;;;;5089941;28;20793;-89
2023/09/18 02:56:04;;;;;;;25.85;23.20;;;17.00;96.40;;;;;;5057569;27;20047;-89
2023/09/18 02:58:30;;;;;;;27.55;24.85;;;17.10;96.60;;;;;;5096325;28;20511;-89
2023/09/18 03:00:58;;;;;;;26.38;23.77;;;17.10;96.60;;;;;;5059482;28;20036;-89
2023/09/18 03:03:24;;;;;;;27.02;24.23;;;17.10;96.70;;;;;;5082446;28;20513;-89
2023/09/18 03:05:50;;;;;;;26.88;24.13;;;17.00;96.80;;;;;;5077106;28;20050;-89
2023/09/18 03:08:16;;;;;;;25.20;22.75;;;17.00;96.90;;;;;;5060530;28;20127;-91
2023/09/18 03:10:43;;;;;;;27.15;24.15;;;17.10;97.00;;;;;;5095000;28;20048;-90
2023/09/18 03:13:09;;;;;;;;;;;17.10;96.90;;;;;;5078671;28;20125;-89
2023/09/18 03:15:35;;;;;;;24.77;22.30;;;17.00;97.80;;;;;;5080803;27;19919;-89
2023/09/18 03:18:03;;;;;;;25.67;23.38;;;17.00;96.50;;;;;;5112592;27;20065;-89
2023/09/18 03:20:29;;;;;;;24.42;22.13;;;17.00;96.60;;;;;;5066288;28;20056;-90
2023/09/18 03:23:02;;;;;;;25.42;22.58;;;17.00;96.70;;;;;;5109481;27;20051;-91
2023/09/18 03:25:28;;;;;;;24.13;21.52;;;17.00;96.80;;;;;;5117913;27;20039;-89
2023/09/18 03:27:56;;;;;;;24.10;21.75;;;17.00;96.90;;;;;;5086700;28;20471;-91
2023/09/18 03:30:26;;;;;;;27.77;24.33;;;17.00;97.00;;;;;;5090319;28;20123;-89
2023/09/18 03:32:52;;;;;;;25.17;22.55;;;17.00;97.10;;;;;;5080922;28;20417;-90
2023/09/18 03:35:19;;;;;;;;;;;17.00;97.30;;;;;;5096487;28;20032;-91
2023/09/18 03:37:47;;;;;;;22.95;20.58;;;16.90;98.50;;;;;;5088061;28;19920;-89
2023/09/18 03:40:13;;;;;;;23.45;21.25;;;16.90;97.30;;;;;;5076982;28;20476;-89
2023/09/18 03:42:39;;;;;;;24.27;21.67;;;16.10;97.00;;;;;;5061087;28;20036;-89
2023/09/18 03:45:14;;;;;;;23.38;20.90;;;16.90;97.20;;;;;;5105541;27;20050;-89
2023/09/18 03:47:42;;;;;;;23.20;21.00;;;16.90;97.40;;;;;;5075561;27;20051;-90
2023/09/18 03:50:12;;;;;;;21.42;19.33;;;16.90;97.50;;;;;;5075841;28;20120;-89
2023/09/18 03:52:39;;;;;;;21.88;19.70;;;16.90;97.60;;;;;;5080482;27;20047;-89
2023/09/18 03:55:09;;;;;;;22.38;20.17;;;17.00;97.60;;;;;;5108067;27;20069;-90
2023/09/18 03:57:36;;;;;;;23.40;21.00;;;17.00;97.70;;;;;;5111077;27;20040;-89
2023/09/18 04:00:03;;;;;;;22.33;20.23;;;17.00;97.80;;;;;;5062344;27;20056;-92
2023/09/18 04:02:30;;;;;;;20.90;18.98;;;17.00;97.70;;;;;;5102851;27;20063;-90
2023/09/18 04:04:55;;;;;;;;;;;17.00;97.80;;;;;;5074576;28;20051;-90
2023/09/18 04:07:24;;;;;;;21.55;19.40;;;17.00;98.30;;;;;;5076762;28;19916;-89
2023/09/18 04:09:49;;;;;;;20.95;18.95;;;17.00;97.50;;;;;;5060311;28;20055;-90
2023/09/18 04:12:15;;;;;;;19.67;17.98;;;17.00;97.30;;;;;;5078634;28;20081;-90
2023/09/18 04:14:41;;;;;;;20.60;18.52;;;17.00;97.30;;;;;;5046054;28;20040;-90
2023/09/18 04:17:07;;;;;;;23.38;20.60;;;17.00;97.50;;;;;;5058658;28;20056;-90
2023/09/18 04:19:37;;;;;;;19.25;17.45;;;17.00;97.50;;;;;;5060697;28;20265;-90
2023/09/18 04:22:10;;;;;;;19.42;17.48;;;17.00;97.50;;;;;;5077108;28;20152;-92
2023/09/18 04:24:38;;;;;;;18.67;16.90;;;17.00;97.70;;;;;;5027819;28;20039;-90
2023/09/18 04:27:07;;;;;;;19.48;17.58;;;17.10;97.70;;;;;;5059047;28;20101;-92
2023/09/18 04:29:35;;;;;;;20.20;17.15;;;17.00;97.70;;;;;;5060686;28;20259;-90
2023/09/18 04:32:07;;;;;;;20.02;17.98;;;17.00;97.60;;;;;;5075285;27;20054;-92
2023/09/18 04:34:35;;;;;;;19.95;17.95;;;17.10;97.70;;;;;;5063563;28;20101;-90
2023/09/18 04:37:01;;;;;;;19.35;17.45;;;17.00;97.70;;;;;;5074307;28;20075;-90
2023/09/18 04:39:42;;;;;;;19.52;17.58;;;17.10;97.80;;;;;;5095552;27;20088;-90
2023/09/18 04:42:07;;;;;;;20.60;18.70;;;17.10;98.20;;;;;;5092248;28;20051;-90
2023/09/18 04:44:33;;;;;;;22.63;18.23;;;18.10;98.50;;;;;;5075286;28;20047;-90
2023/09/18 04:46:59;;;;;;;20.85;18.85;;;17.10;98.20;;;;;;5081978;27;20096;-90
2023/09/18 04:49:26;;;;;;;20.30;18.23;;;17.10;98.30;;;;;;5085116;28;20399;-89
2023/09/18 04:52:07;;;;;;;;;;;16.90;98.20;;;;;;5094359;28;20048;-90
2023/09/18 04:54:37;;;;;;;19.58;17.45;;;17.20;99.00;;;;;;5084660;27;19969;-90
2023/09/18 04:57:13;;;;;;;;;;;;;;;;;;;;;
2023/09/18 04:59:45;;;;;;;19.55;17.55;;;17.20;97.60;;;;;;5118863;28;20051;-90
2023/09/18 05:02:13;;;;;;;18.48;16.58;;;17.20;97.50;;;;;;5103112;28;20039;-90
2023/09/18 05:04:42;;;;;;;21.50;18.40;;;17.20;97.60;;;;;;5097730;28;20496;-91
2023/09/18 05:07:10;;;;;;;18.27;16.55;;;17.20;97.80;;;;;;5091023;28;20384;-91
2023/09/18 05:09:38;;;;;;;25.00;17.67;;;17.20;97.90;;;;;;5082099;28;20051;-91
2023/09/18 05:12:08;;;;;;;19.95;18.02;;;17.20;97.80;;;;;;5081756;28;20118;-90
2023/09/18 05:14:36;;;;;;;17.67;15.90;;;17.30;97.90;;;;;;5097369;28;20043;-91
2023/09/18 05:17:07;;;;;;;17.58;15.77;;;17.30;97.90;;;;;;5082468;28;20131;-91
2023/09/18 05:19:43;;;;;;;;;;;;;;;;;;;;;
2023/09/18 05:22:15;;;;;;;19.10;17.10;;;17.30;97.90;;;;;;5090817;28;20055;-90
2023/09/18 05:24:45;;;;;;;17.17;14.43;;;17.30;97.90;;;;;;5081209;28;20484;-90
2023/09/18 05:27:13;;;;;;;16.60;14.98;;;17.30;98.10;;;;;;5069082;28;20127;-91
2023/09/18 05:30:05;;;;;;;17.45;14.75;;;17.30;98.00;;;;;;5058530;28;20080;-90
2023/09/18 05:32:35;;;;;;;14.60;13.10;;;17.30;97.90;;;;;;5077251;28;20054;-94
2023/09/18 05:35:10;;;;;;;17.33;15.52;;;17.30;97.80;;;;;;5080268;28;20093;-90
2023/09/18 05:37:47;;;;;;;17.08;13.35;;;17.40;97.70;;;;;;5103735;27;20127;-90
2023/09/18 05:40:21;;;;;;;17.40;14.10;;;17.40;97.50;;;;;;5094029;28;20104;-95
2023/09/18 05:43:07;;;;;;;17.17;13.60;;;17.30;97.20;;;;;;5075536;28;20093;-90
2023/09/18 05:45:54;;;;;;;16.45;14.20;;;17.50;97.30;;;;;;5083405;28;20054;-90
2023/09/18 05:48:22;;;;;;;18.00;13.32;;;17.10;97.20;;;;;;5085560;28;20054;-90
2023/09/18 05:50:52;;;;;;;13.63;12.15;;;17.40;97.20;;;;;;5062381;28;20127;-90
2023/09/18 05:53:24;;;;;;;15.02;13.52;;;17.50;97.30;;;;;;5085387;28;20032;-90
2023/09/18 05:55:52;;;;;;;15.57;13.98;;;17.60;97.40;;;;;;5083878;28;20116;-90
2023/09/18 05:58:26;;;;;;;13.70;12.30;;;17.60;97.40;;;;;;5074150;28;20036;-94
2023/09/18 06:01:00;;;;;;;14.82;13.32;;;17.60;97.30;;;;;;5080682;28;20047;-90
2023/09/18 06:03:27;;;;;;;15.05;12.75;;;17.60;97.50;;;;;;5094078;28;20044;-90
2023/09/18 06:05:55;;;;;;;15.23;11.55;;;17.60;97.20;;;;;;5083596;28;20044;-90
2023/09/18 06:08:23;;;;;;;14.85;12.43;;;17.60;97.20;;;;;;5082019;28;20055;-90
2023/09/18 06:10:54;;;;;;;16.23;12.05;;;17.60;97.30;;;;;;5082490;28;20078;-90
2023/09/18 06:13:19;;;;;;;13.10;11.32;;;17.60;97.10;;;;;;5068978;28;20436;-89
2023/09/18 06:15:45;;;;;;;15.98;12.25;;;17.70;97.20;;;;;;5091245;28;20162;-88
2023/09/18 06:18:11;;;;;;;12.88;11.25;;;17.70;97.00;;;;;;5044245;28;20511;-87
2023/09/18 06:20:37;;;;;;;14.82;10.30;;;17.80;96.90;;;;;;5077526;28;20056;-88
2023/09/18 06:23:03;;;;;;;11.90;10.38;;;17.80;96.70;;;;;;5060891;28;20044;-88
2023/09/18 06:25:31;;;;;;;12.85;9.43;;;17.80;96.50;;;;;;5060811;28;20078;-87
2023/09/18 06:27:57;;;;;;;13.18;10.38;;;17.90;96.30;;;;;;5045698;28;20036;-90
2023/09/18 06:30:22;;;;;;;17.42;10.13;;;17.90;96.00;;;;;;5031453;28;20040;-91
2023/09/18 06:32:48;;;;;;;14.10;10.40;;;17.90;95.60;;;;;;5062368;28;20082;-89
2023/09/18 06:35:14;;;;;;;13.55;10.40;;;18.00;95.40;;;;;;5064536;28;20097;-91
2023/09/18 06:37:40;;;;;;;12.25;10.93;;;17.90;95.20;;;;;;5060932;28;20044;-89
2023/09/18 06:40:09;;;;;;;13.80;11.98;;;18.00;95.10;;;;;;5065188;28;20075;-92
2023/09/18 06:42:34;;;;;;;12.45;9.57;;;18.00;95.20;;;;;;5088700;28;20054;-89
2023/09/18 06:45:01;;;;;;;14.38;11.40;;;18.00;95.30;;;;;;5028825;28;20134;-87
2023/09/18 06:47:26;;;;;;;;;;;18.10;95.40;;;;;;5074657;28;20048;-86
2023/09/18 06:49:52;;;;;;;14.23;11.32;;;18.00;96.60;;;;;;5076981;28;19927;-86
2023/09/18 06:52:18;;;;;;;13.18;11.13;;;18.00;95.50;;;;;;5060593;28;20048;-86
2023/09/18 06:54:44;;;;;;;19.48;11.90;;;18.00;95.40;;;;;;5084234;28;20100;-86
2023/09/18 06:57:12;;;;;;;17.70;12.15;;;18.00;95.40;;;;;;5081235;28;20062;-87
2023/09/18 06:59:38;;;;;;;14.90;11.48;;;18.00;95.50;;;;;;5089932;27;20528;-87
2023/09/18 07:02:04;;;;;;;13.95;11.95;;;18.00;95.80;;;;;;5103270;27;20043;-86
2023/09/18 07:04:30;;;;;;;19.08;13.23;;;18.00;95.90;;;;;;5119636;27;20039;-85
2023/09/18 07:06:58;;;;;;;20.60;13.18;;;18.00;96.00;;;;;;5083994;28;20048;-90
2023/09/18 07:09:24;;;;;;;26.13;15.38;;;17.50;96.00;;;;;;5069243;27;20051;-89
2023/09/18 07:11:52;;;;;;;;;;;18.00;96.70;;;;;;5095839;27;20039;-90
2023/09/18 07:14:41;;;;;;;23.23;16.10;;;18.00;99.50;;;;;;5103443;28;19920;-93
2023/09/18 07:17:07;;;;;;;39.70;19.73;;;18.00;97.50;;;;;;5078642;27;20039;-89
2023/09/18 07:19:35;;;;;;;23.38;18.75;;;18.00;98.20;;;;;;5085160;27;20479;-91
2023/09/18 07:22:01;;;;;;;36.65;23.50;;;18.00;99.10;;;;;;5075900;27;20074;-90
2023/09/18 07:24:30;;;;;;;23.48;19.23;;;17.90;99.90;;;;;;5066787;27;20059;-91
2023/09/18 07:26:57;;;;;;;13.43;12.05;;;17.90;99.90;;;;;;5071738;28;20052;-89
2023/09/18 07:29:28;;;;;;;13.57;11.05;;;17.90;99.90;;;;;;5090303;27;20558;-91
2023/09/18 07:31:54;;;;;;;14.60;13.07;;;17.90;99.90;;;;;;5110937;27;20054;-89
2023/09/18 07:34:29;;;;;;;15.63;12.75;;;17.90;99.90;;;;;;5106969;27;20039;-87
2023/09/18 07:36:58;;;;;;;17.67;15.73;;;17.80;99.90;;;;;;5087714;28;20043;-89
2023/09/18 07:39:24;;;;;;;19.58;16.20;;;17.80;99.90;;;;;;5074697;27;20039;-86
2023/09/18 07:41:50;;;;;;;19.17;17.17;;;17.90;99.90;;;;;;5112596;28;20099;-87
2023/09/18 07:44:20;;;;;;;19.48;17.50;;;17.90;99.90;;;;;;5088168;27;20104;-88
2023/09/18 07:46:46;;;;;;;20.30;18.10;;;16.90;99.90;;;;;;5090982;27;20049;-85
2023/09/18 07:49:14;;;;;;;20.77;18.50;;;17.90;99.90;;;;;;5111443;27;20035;-91
2023/09/18 07:51:40;;;;;;;22.33;19.85;;;18.00;99.90;;;;;;5099312;27;20046;-92
2023/09/18 07:54:16;;;;;;;20.48;18.35;;;17.80;99.90;;;;;;5093008;28;20036;-91
2023/09/18 07:56:45;;;;;;;21.50;18.30;;;18.00;99.90;;;;;;5075422;27;20505;-92
2023/09/18 07:59:14;;;;;;;19.52;17.42;;;18.10;99.90;;;;;;5088029;27;20045;-92
2023/09/18 08:01:43;;;;;;;21.52;19.30;;;18.00;99.90;;;;;;5073333;28;20514;-92
2023/09/18 08:04:15;;;;;;;22.92;20.58;;;17.20;99.90;;;;;;5062470;28;20044;-96
2023/09/18 08:06:44;;;;;;;20.35;18.25;;;18.10;99.90;;;;;;5077008;28;20062;-96
2023/09/18 08:09:13;;;;;;;19.20;17.25;;;18.10;99.90;;;;;;5076771;28;20498;-94
2023/09/18 08:11:42;;;;;;;17.98;15.93;;;18.10;99.90;;;;;;5077476;28;20089;-96
2023/09/18 08:14:11;;;;;;;16.08;14.48;;;18.20;99.90;;;;;;5113924;27;20035;-96
2023/09/18 08:16:42;;;;;;;16.50;14.13;;;18.10;99.90;;;;;;5086303;27;20051;-95
2023/09/18 08:19:19;;;;;;;15.63;14.02;;;17.50;99.90;;;;;;5103269;27;20055;-96
2023/09/18 08:21:46;;;;;;;15.18;13.73;;;18.10;99.90;;;;;;5070727;27;20115;-94
2023/09/18 08:24:14;;;;;;;;;;;18.10;99.90;;;;;;5103190;28;20056;-96
2023/09/18 08:26:40;;;;;;;15.80;14.18;;;18.20;99.90;;;;;;5061373;28;19920;-96
2023/09/18 08:29:05;;;;;;;20.65;16.13;;;18.10;99.90;;;;;;5077640;28;20380;-95
2023/09/18 08:31:31;;;;;;;19.35;16.67;;;18.10;99.90;;;;;;5065369;28;20066;-96
2023/09/18 08:33:57;;;;;;;19.27;16.92;;;18.10;99.90;;;;;;5076080;27;20039;-96
2023/09/18 08:36:29;;;;;;;20.48;18.15;;;18.20;99.90;;;;;;5105501;27;20047;-94
2023/09/18 08:38:54;;;;;;;21.83;19.17;;;18.10;99.90;;;;;;5104818;27;20093;-95
2023/09/18 08:41:26;;;;;;;21.02;18.80;;;18.10;99.90;;;;;;5102158;27;20075;-95
2023/09/18 08:44:03;;;;;;;21.63;19.20;;;18.10;99.90;;;;;;5103289;28;20112;-95
2023/09/18 08:46:34;;;;;;;21.85;17.67;;;18.10;99.90;;;;;;5062257;28;20059;-94
2023/09/18 08:49:03;;;;;;;24.05;20.98;;;18.10;99.90;;;;;;5078199;28;20045;-95
2023/09/18 08:51:36;;;;;;;22.75;19.73;;;18.20;99.90;;;;;;5099624;28;20044;-95
2023/09/18 08:54:07;;;;;;;26.27;22.15;;;18.30;99.90;;;;;;5082400;28;20046;-96
2023/09/18 08:56:38;;;;;;;23.42;21.00;;;18.20;99.90;;;;;;5082770;28;20051;-92
2023/09/18 08:59:12;;;;;;;22.40;19.98;;;18.80;99.90;;;;;;5105119;28;20039;-92
2023/09/18 09:01:38;;;;;;;26.00;21.10;;;18.30;99.90;;;;;;5094003;28;20043;-92
2023/09/18 09:04:16;;;;;;;24.17;21.52;;;17.70;99.90;;;;;;5092708;28;20075;-92
2023/09/18 09:06:44;;;;;;;28.50;22.83;;;18.30;99.90;;;;;;5069880;28;20044;-93
2023/09/18 09:09:13;;;;;;;24.55;21.88;;;18.30;99.90;;;;;;5071234;28;20058;-92
2023/09/18 09:11:47;;;;;;;29.95;23.42;;;18.30;99.90;;;;;;5077738;28;20080;-90
2023/09/18 09:14:41;;;;;;;24.83;22.15;;;18.40;99.90;;;;;;5091762;28;20320;-91
2023/09/18 09:17:14;;;;;;;25.27;20.80;;;18.30;99.90;;;;;;5104508;28;20044;-87
2023/09/18 09:19:42;;;;;;;26.70;23.15;;;18.30;99.90;;;;;;5067719;28;20120;-86
2023/09/18 09:22:11;;;;;;;28.35;23.10;;;18.30;99.90;;;;;;5090185;27;20043;-86
2023/09/18 09:24:43;;;;;;;34.67;26.58;;;18.30;99.90;;;;;;5079269;27;20035;-91
2023/09/18 09:27:14;;;;;;;29.38;25.58;;;18.40;99.90;;;;;;5109767;27;20038;-92
2023/09/18 09:29:40;;;;;;;31.05;25.25;;;18.40;99.90;;;;;;5094898;27;20044;-87
2023/09/18 09:32:16;;;;;;;31.75;26.92;;;18.40;99.90;;;;;;5089106;27;20093;-87
2023/09/18 09:34:43;;;;;;;31.92;27.52;;;18.50;99.90;;;;;;5095910;27;20067;-86
2023/09/18 09:37:10;;;;;;;28.75;25.38;;;18.50;99.90;;;;;;5070415;27;20040;-87
2023/09/18 09:39:52;;;;;;;31.75;25.65;;;18.60;99.90;;;;;;5103392;27;20044;-87
2023/09/18 09:42:28;;;;;;;28.45;25.42;;;18.70;99.90;;;;;;5074027;28;20055;-88
2023/09/18 09:45:05;;;;;;;26.27;23.48;;;18.80;99.90;;;;;;5091018;27;20039;-87
2023/09/18 09:47:34;;;;;;;;;;;18.80;99.90;;;;;;5095081;27;20035;-86
2023/09/18 09:50:10;;;;;;;29.45;24.20;;;18.90;99.90;;;;;;5094752;27;19919;-87
2023/09/18 09:52:40;;;;;;;31.67;25.35;;;18.90;99.90;;;;;;5100875;27;20078;-90
2023/09/18 09:55:20;;;;;;;28.48;24.38;;;19.10;99.90;;;;;;5104811;27;20048;-90
2023/09/18 09:57:51;;;;;;;29.13;24.40;;;19.30;99.90;;;;;;5090859;27;20498;-88
2023/09/18 10:01:02;;;;;;;27.38;22.50;;;19.30;99.90;;;;;;5074335;27;20048;-88
2023/09/18 10:03:08;;;;;;;25.10;22.45;;;19.30;99.90;;;;;;5066759;27;20123;-87
2023/09/18 10:05:40;;;;;;;22.75;20.40;;;19.40;99.90;;;;;;5066855;27;20047;-86
2023/09/18 10:08:26;;;;;;;26.08;21.02;;;19.50;99.90;;;;;;5075108;27;20101;-87
2023/09/18 10:10:54;;;;;;;22.98;19.65;;;19.60;99.90;;;;;;5095120;27;20062;-88
2023/09/18 10:13:36;;;;;;;20.58;18.38;;;19.60;99.90;;;;;;5079705;27;20043;-87
2023/09/18 10:16:10;;;;;;;20.75;18.67;;;19.60;99.90;;;;;;5087845;28;20043;-87
2023/09/18 10:18:52;;;;;;;21.23;17.58;;;19.60;99.90;;;;;;5103699;27;20063;-88
2023/09/18 10:21:43;;;;;;;20.00;18.10;;;19.70;99.90;;;;;;5082607;28;20055;-89
2023/09/18 10:24:25;;;;;;;19.67;17.50;;;19.70;99.90;;;;;;5072580;27;20039;-86
2023/09/18 10:26:58;;;;;;;17.92;15.45;;;19.70;99.90;;;;;;5094290;27;20035;-87
2023/09/18 10:29:30;;;;;;;16.60;15.10;;;19.70;99.90;;;;;;5099503;27;20043;-88
2023/09/18 10:31:56;;;;;;;16.88;15.25;;;19.70;99.90;;;;;;5109122;27;20447;-88
2023/09/18 10:34:23;;;;;;;17.02;15.55;;;19.80;99.90;;;;;;5075310;27;20122;-91
2023/09/18 10:36:51;;;;;;;17.40;15.70;;;19.90;99.90;;;;;;5107718;27;20039;-85
2023/09/18 10:39:19;;;;;;;16.95;15.35;;;19.90;99.90;;;;;;5072952;28;20127;-91
2023/09/18 10:41:54;;;;;;;16.65;14.75;;;20.10;99.90;;;;;;5093552;27;20122;-90
2023/09/18 10:44:20;;;;;;;15.57;14.23;;;20.10;99.90;;;;;;5114032;27;20478;-90
2023/09/18 10:46:46;;;;;;;;;;;20.20;99.90;;;;;;5075413;27;20088;-91
2023/09/18 10:49:12;;;;;;;14.40;13.00;;;20.30;99.90;;;;;;5090094;27;19927;-91
2023/09/18 10:51:42;;;;;;;14.85;12.48;;;20.50;99.90;;;;;;5081409;28;20399;-94
2023/09/18 10:54:14;;;;;;;11.55;10.45;;;20.70;99.90;;;;;;5084100;28;20076;-89
2023/09/18 10:56:43;;;;;;;11.32;10.18;;;20.70;99.90;;;;;;5074789;28;20106;-95
2023/09/18 10:59:09;;;;;;;10.75;9.95;;;20.70;99.90;;;;;;5087460;27;20096;-89
2023/09/18 11:01:36;;;;;;;10.43;9.57;;;20.80;99.90;;;;;;5076336;27;20040;-89
2023/09/18 11:04:10;;;;;;;9.25;8.40;;;20.80;99.90;;;;;;5082810;28;20105;-89
2023/09/18 11:06:54;;;;;;;9.52;8.63;;;20.80;97.30;;;;;;5095740;27;20056;-90
2023/09/18 11:09:27;;;;;;;9.88;7.68;;;20.70;92.80;;;;;;5112362;27;20490;-90
2023/09/18 11:12:04;;;;;;;9.25;7.60;;;20.80;94.70;;;;;;5071664;28;20044;-91
2023/09/18 11:14:46;;;;;;;7.88;7.05;;;20.80;91.50;;;;;;5105391;28;20108;-93
2023/09/18 11:17:35;;;;;;;7.28;6.57;;;20.70;85.20;;;;;;5075935;28;20048;-88
2023/09/18 11:20:08;;;;;;;8.27;7.28;;;20.70;77.00;;;;;;5099053;27;20035;-88
2023/09/18 11:22:36;;;;;;;8.50;6.53;;;20.70;89.40;;;;;;5102675;27;20066;-88
2023/09/18 11:25:45;;;;;;;9.60;7.00;;;20.60;87.60;;;;;;5108488;27;20502;-88
2023/09/18 11:28:17;;;;;;;7.28;6.57;;;20.60;77.10;;;;;;5078809;27;20043;-90
2023/09/18 11:30:58;;;;;;;7.50;6.75;;;20.50;75.70;;;;;;5075228;28;20055;-85
2023/09/18 11:33:43;;;;;;;6.22;5.70;;;20.50;78.80;;;;;;5091797;28;20118;-87
2023/09/18 11:36:14;;;;;;;6.40;5.90;;;20.60;77.60;;;;;;5079118;28;20044;-87
2023/09/18 11:38:56;;;;;;;8.60;6.85;;;20.80;83.50;;;;;;5076129;28;20040;-87
2023/09/18 11:41:27;;;;;;;7.50;6.55;;;21.10;70.50;;;;;;5089097;27;20044;-89
2023/09/18 11:44:18;;;;;;;8.25;7.38;;;21.30;73.80;;;;;;5062935;27;20433;-89
2023/09/18 11:46:52;;;;;;;8.18;7.03;;;21.40;51.20;;;;;;5072055;28;20460;-88
2023/09/18 11:49:27;;;;;;;8.80;6.53;;;21.50;60.70;;;;;;5096359;28;20043;-89
2023/09/18 11:51:54;;;;;;;7.07;5.70;;;21.70;58.40;;;;;;5087572;28;20532;-88
2023/09/18 11:54:23;;;;;;;6.22;5.63;;;21.70;61.10;;;;;;5054968;28;20036;-87
2023/09/18 11:56:49;;;;;;;12.95;8.52;;;21.60;56.30;;;;;;5078739;28;20055;-87
2023/09/18 11:59:15;;;;;;;10.45;8.25;;;21.40;60.90;;;;;;5075486;28;20451;-84
2023/09/18 12:01:41;;;;;;;13.23;8.75;;;21.20;66.10;;;;;;5093308;28;20070;-85
2023/09/18 12:04:13;;;;;;;17.55;9.63;;;20.90;71.10;;;;;;5059805;28;20046;-84
2023/09/18 12:06:40;;;;;;;10.73;9.70;;;20.70;75.40;;;;;;5079647;27;20039;-83
2023/09/18 12:09:06;;;;;;;11.02;9.27;;;20.40;81.30;;;;;;5069907;28;20491;-84
2023/09/18 12:11:37;;;;;;;10.25;9.25;;;20.30;86.30;;;;;;5095860;28;20046;-84
2023/09/18 12:14:04;;;;;;;9.40;8.52;;;20.10;87.90;;;;;;5091855;28;20040;-91
2023/09/18 12:16:30;;;;;;;10.93;9.63;;;20.00;91.40;;;;;;5066904;27;20039;-84
2023/09/18 12:18:56;;;;;;;9.95;9.05;;;20.00;92.80;;;;;;5079315;28;20559;-83
2023/09/18 12:21:23;;;;;;;10.40;9.30;;;20.00;94.20;;;;;;5078454;28;20059;-87
2023/09/18 12:23:49;;;;;;;9.90;8.30;;;20.10;96.00;;;;;;5088164;27;20126;-85
2023/09/18 12:26:20;;;;;;;8.20;7.40;;;20.40;96.70;;;;;;5073623;27;20395;-85
2023/09/18 12:28:45;;;;;;;9.82;8.80;;;20.60;95.20;;;;;;5094540;27;20047;-85
2023/09/18 12:31:13;;;;;;;8.63;7.70;;;20.70;91.50;;;;;;5097871;27;20031;-87
2023/09/18 12:33:40;;;;;;;7.30;6.53;;;20.90;86.30;;;;;;5074273;27;20061;-84
2023/09/18 12:36:08;;;;;;;7.82;6.53;;;21.00;80.80;;;;;;5107866;27;20146;-84
2023/09/18 12:38:34;;;;;;;6.18;5.68;;;21.20;74.90;;;;;;5072513;28;20055;-84
2023/09/18 12:41:05;;;;;;;7.05;6.35;;;21.40;69.90;;;;;;5074190;28;20483;-85
2023/09/18 12:43:49;;;;;;;6.07;5.57;;;21.60;67.50;;;;;;5107174;27;20045;-84
2023/09/18 12:46:15;;;;;;;6.75;6.00;;;21.80;39.40;;;;;;5125344;27;20043;-84
2023/09/18 12:48:46;;;;;;;6.07;5.57;;;21.80;58.50;;;;;;5097796;27;20470;-85